ADDS METAR Data INFO
IDs: Format: Raw Decoded Include TAF

Data at: 0234 UTC 22 Jul 2017

KSAT 220151Z 13015KT 10SM FEW250 33/19 A2992 RMK AO2 SLP113 T03330194
KSAT 220051Z 11012KT 10SM FEW080 FEW250 35/18 A2991 RMK AO2 SLP109 T03500178
KSAT 212351Z 16011KT 10SM FEW080 FEW250 37/17 A2991 RMK AO2 SLP108 T03670167 10378 20344 56017
KSAT 212251Z 12011G18KT 10SM FEW080 FEW250 37/17 A2992 RMK AO2 SLP111 T03670167
KSAT 212151Z 14014KT 10SM FEW080 FEW250 37/17 A2994 RMK AO2 SLP117 T03720167
KSAT 212051Z 13011KT 10SM FEW075 FEW250 37/17 A2996 RMK AO2 SLP125 T03720167 58023
KSAT 211951Z 17009G15KT 10SM FEW070 FEW250 37/17 A2999 RMK AO2 SLP133 T03670172
KSAT 211851Z 16012G16KT 10SM FEW065 FEW250 36/18 A3002 RMK AO2 SLP144 T03610178
KSAT 211751Z VRB05KT 10SM FEW060 FEW250 34/18 A3003 RMK AO2 SLP149 T03440183 10350 20244 58010
KSAT 211651Z 15010KT 10SM FEW250 33/19 A3005 RMK AO2 SLP156 T03330194
KSAT 211551Z 19008KT 10SM FEW250 32/20 A3006 RMK AO2 SLP159 T03220200
KSAT 211451Z 19008KT 10SM CLR 30/21 A3006 RMK AO2 SLP159 T03000206 50008
KSAT 211351Z 17005KT 10SM FEW250 28/22 A3006 RMK AO2 SLP160 T02780222
KSAT 211251Z 14004KT 10SM FEW250 26/23 A3005 RMK AO2 SLP155 T02610228
KSAT 211151Z 16004KT 10SM FEW250 25/22 A3004 RMK AO2 SLP151 T02500222 10283 20244 53003
KSAT 211051Z VRB05KT 10SM CLR 26/22 A3002 RMK AO2 SLP146 T02560222
KSAT 210951Z 17005KT 10SM CLR 26/22 A3001 RMK AO2 SLP143 T02610222
KSAT 210851Z 16006KT 10SM CLR 26/22 A3003 RMK AO2 SLP148 T02610222 58009
KSAT 210751Z 16009KT 10SM CLR 27/22 A3004 RMK AO2 SLP152 T02670217
KSAT 210651Z 17008KT 10SM FEW250 27/22 A3005 RMK AO2 SLP157 T02720217
KSAT 210551Z 16011KT 10SM FEW250 28/21 A3006 RMK AO2 SLP157 T02830211 10367 20283 403780244 51018
KSAT 210451Z 16013KT 10SM FEW250 29/21 A3005 RMK AO2 SLP156 T02940206
KSAT 210351Z 15014G22KT 10SM FEW250 31/20 A3003 RMK AO2 SLP147 T03060200
KSAT 210251Z 15016G21KT 10SM FEW250 32/21 A3000 RMK AO2 SLP139 T03170206 53011
KSAT 210151Z 14021KT 10SM FEW250 33/21 A2999 RMK AO2 PK WND 13027/0139 SLP134 T03280211
KSAT 210051Z 11009KT 10SM FEW075 FEW250 35/18 A2998 RMK AO2 SLP130 T03500178
KSAT 202351Z 15011KT 10SM FEW075 FEW250 37/18 A2997 RMK AO2 SLP128 T03670178 10378 20339 56021
KSAT 202251Z 14013G19KT 10SM FEW075 FEW250 37/18 A2998 RMK AO2 SLP132 T03720178
KSAT 202151Z 17007KT 10SM SCT070 SCT250 37/18 A3001 RMK AO2 SLP141 T03670183
KSAT 202051Z 00000KT 10SM SCT070 SCT250 36/18 A3003 RMK AO2 SLP149 T03610183 57026
KSAT 201951Z VRB04KT 10SM FEW065 FEW250 37/18 A3006 RMK AO2 SLP158 T03670183
KSAT 201851Z VRB03KT 10SM FEW060 FEW250 35/18 A3009 RMK AO2 SLP168 T03500178
KSAT 201751Z 18007KT 10SM FEW055 34/19 A3011 RMK AO2 SLP176 T03440194 10344 20244 58017
KSAT 201651Z 18008KT 130V200 10SM FEW045 33/21 A3014 RMK AO2 SLP184 T03280206
KSAT 201551Z 00000KT 10SM FEW033 31/21 A3016 RMK AO2 SLP192 T03060206
KSAT 201451Z COR 16008KT 10SM FEW026 30/22 A3016 RMK AO2 SLP194 T03000217 50009